createdAt,value
2019-03-22T00:00:58.727Z,42.80
2019-03-22T00:03:30.209Z,41.67
2019-03-22T00:06:01.325Z,44.87
2019-03-22T00:08:32.430Z,44.00
2019-03-22T00:11:03.464Z,42.17
2019-03-22T00:13:41.104Z,43.30
2019-03-22T00:16:12.237Z,42.07
2019-03-22T00:18:43.303Z,43.57
2019-03-22T00:21:14.506Z,44.37
2019-03-22T00:23:45.643Z,45.20
2019-03-22T00:26:17.195Z,43.37
2019-03-22T00:28:48.590Z,42.40
2019-03-22T00:31:20.573Z,42.83
2019-03-22T00:33:51.905Z,41.97
2019-03-22T00:36:23.034Z,43.87
2019-03-22T00:38:57.429Z,45.73
2019-03-22T00:41:28.418Z,47.17
2019-03-22T00:43:59.611Z,46.07
2019-03-22T00:46:30.949Z,43.57
2019-03-22T00:49:01.966Z,45.30
2019-03-22T00:51:32.955Z,47.10
2019-03-22T00:54:03.974Z,44.23
2019-03-22T00:56:35.093Z,40.70
2019-03-22T00:59:08.848Z,42.20
2019-03-22T01:01:39.892Z,46.33
2019-03-22T01:04:12.117Z,45.10
2019-03-22T01:06:43.230Z,41.90
2019-03-22T01:09:14.214Z,42.90
2019-03-22T01:11:45.207Z,42.97
2019-03-22T01:14:16.217Z,42.83
2019-03-22T01:16:47.355Z,43.00
2019-03-22T01:19:18.712Z,41.47
2019-03-22T01:21:49.764Z,41.67
2019-03-22T01:24:21.299Z,39.97
2019-03-22T01:26:52.124Z,45.57
2019-03-22T01:29:23.717Z,43.93
2019-03-22T01:31:55.249Z,44.03
2019-03-22T01:34:26.429Z,41.43
2019-03-22T01:36:57.953Z,40.23
2019-03-22T01:39:28.945Z,41.70
2019-03-22T01:42:00.329Z,43.40
2019-03-22T01:44:31.847Z,49.43
2019-03-22T01:47:03.103Z,43.00
2019-03-22T01:49:34.100Z,42.10
2019-03-22T01:52:05.736Z,43.00
2019-03-22T01:54:36.742Z,43.90
2019-03-22T01:57:08.263Z,45.10
2019-03-22T01:59:39.206Z,41.00
2019-03-22T02:02:10.792Z,39.90
2019-03-22T02:04:42.086Z,40.97
2019-03-22T02:07:13.182Z,43.23
2019-03-22T02:09:44.345Z,39.90
2019-03-22T02:12:15.682Z,41.97
2019-03-22T02:14:46.781Z,39.67
2019-03-22T02:17:17.845Z,45.33
2019-03-22T02:19:49.337Z,42.50
2019-03-22T02:22:20.510Z,43.93
2019-03-22T02:24:52.283Z,44.53
2019-03-22T02:27:23.292Z,43.47
2019-03-22T02:29:55.216Z,46.57
2019-03-22T02:32:26.663Z,49.33
2019-03-22T02:34:57.611Z,45.50
2019-03-22T02:37:28.861Z,46.93
2019-03-22T02:40:00.013Z,45.53
2019-03-22T02:42:31.049Z,52.57
2019-03-22T02:45:02.339Z,53.27
2019-03-22T02:47:33.533Z,54.87
2019-03-22T02:50:17.227Z,52.37
2019-03-22T02:52:38.564Z,52.60
2019-03-22T02:55:10.570Z,59.93
2019-03-22T02:57:41.907Z,56.60
2019-03-22T03:00:14.083Z,67.07
2019-03-22T03:02:45.531Z,60.73
2019-03-22T03:05:16.977Z,71.40
2019-03-22T03:07:48.468Z,59.03
2019-03-22T03:10:19.560Z,58.13
2019-03-22T03:12:50.698Z,65.03
2019-03-22T03:15:21.823Z,57.47
2019-03-22T03:17:52.997Z,61.17
2019-03-22T03:20:23.903Z,84.97
2019-03-22T03:22:55.313Z,59.17
2019-03-22T03:25:26.791Z,56.60
2019-03-22T03:27:57.885Z,73.17
2019-03-22T03:30:28.881Z,79.50
2019-03-22T03:33:00.015Z,63.77
2019-03-22T03:35:31.057Z,56.73
2019-03-22T03:38:02.085Z,56.83
2019-03-22T03:40:33.431Z,58.90
2019-03-22T03:43:04.794Z,57.60
2019-03-22T03:45:37.048Z,60.17
2019-03-22T03:48:09.813Z,60.30
2019-03-22T03:50:41.080Z,58.77
2019-03-22T03:53:12.334Z,58.53
2019-03-22T03:55:46.612Z,58.97
2019-03-22T03:58:17.743Z,73.27
2019-03-22T04:00:49.020Z,77.20
2019-03-22T04:03:20.558Z,79.23
2019-03-22T04:05:51.701Z,66.67
2019-03-22T04:08:22.619Z,65.10
2019-03-22T04:10:53.899Z,61.37
2019-03-22T04:13:25.312Z,60.70
2019-03-22T04:15:56.471Z,68.20
2019-03-22T04:18:27.582Z,59.67
2019-03-22T04:20:58.612Z,75.53
2019-03-22T04:23:29.491Z,68.73
2019-03-22T04:26:00.610Z,69.73
2019-03-22T04:28:31.852Z,66.43
2019-03-22T04:31:02.889Z,60.53
2019-03-22T04:33:33.844Z,64.50
2019-03-22T04:36:04.869Z,73.93
2019-03-22T04:38:36.344Z,79.60
2019-03-22T04:41:07.454Z,67.90
2019-03-22T04:43:38.627Z,60.90
2019-03-22T04:46:11.070Z,60.30
2019-03-22T04:48:42.752Z,60.40
2019-03-22T04:51:14.762Z,58.73
2019-03-22T04:53:57.926Z,62.23
2019-03-22T04:56:32.262Z,62.83
2019-03-22T04:59:05.443Z,56.73
2019-03-22T05:01:38.057Z,75.47
2019-03-22T05:04:17.612Z,65.97
2019-03-22T05:06:50.176Z,69.17
2019-03-22T05:09:23.626Z,57.93
2019-03-22T05:11:57.030Z,60.57
2019-03-22T05:14:30.159Z,58.23
2019-03-22T05:17:01.994Z,58.07
2019-03-22T05:19:37.890Z,70.10
2019-03-22T05:22:13.157Z,61.30
2019-03-22T05:24:49.641Z,64.20
2019-03-22T05:27:21.971Z,55.63
2019-03-22T05:29:57.071Z,58.70
2019-03-22T05:32:28.153Z,52.40
2019-03-22T05:34:59.744Z,58.80
2019-03-22T05:37:31.390Z,63.57
2019-03-22T05:40:02.962Z,59.63
2019-03-22T05:42:33.919Z,57.93
2019-03-22T05:45:05.568Z,61.10
2019-03-22T05:47:37.509Z,65.97
2019-03-22T05:50:09.247Z,60.57
2019-03-22T05:52:40.324Z,70.80
2019-03-22T05:55:11.751Z,88.63
2019-03-22T05:57:42.808Z,67.87
2019-03-22T06:00:16.096Z,62.23
2019-03-22T06:02:47.225Z,64.20
2019-03-22T06:05:18.241Z,65.33
2019-03-22T06:07:49.280Z,59.47
2019-03-22T06:10:20.470Z,55.43
2019-03-22T06:12:51.494Z,59.17
2019-03-22T06:15:22.611Z,63.20
2019-03-22T06:17:54.001Z,58.53
2019-03-22T06:20:25.145Z,64.43
2019-03-22T06:22:57.055Z,63.93
2019-03-22T06:25:28.067Z,61.87
2019-03-22T06:27:59.223Z,61.23
2019-03-22T06:30:30.309Z,54.63
2019-03-22T06:33:01.312Z,57.97
2019-03-22T06:35:32.515Z,52.90
2019-03-22T06:38:03.626Z,53.67
2019-03-22T06:40:34.785Z,53.93
2019-03-22T06:43:05.974Z,51.83
2019-03-22T06:45:37.279Z,51.53
2019-03-22T06:48:09.083Z,56.27
2019-03-22T06:50:40.216Z,55.23
2019-03-22T06:53:11.359Z,53.57
2019-03-22T06:55:42.491Z,50.73
2019-03-22T06:58:14.038Z,48.23
2019-03-22T07:00:45.447Z,47.63
2019-03-22T07:03:16.623Z,51.03
2019-03-22T07:05:48.049Z,51.20
2019-03-22T07:08:19.572Z,45.90
2019-03-22T07:10:50.679Z,44.97
2019-03-22T07:13:21.882Z,46.93
2019-03-22T07:15:52.887Z,44.80
2019-03-22T07:18:24.432Z,44.63
2019-03-22T07:20:55.824Z,45.67
2019-03-22T07:23:45.977Z,43.57
2019-03-22T07:26:17.243Z,45.20
2019-03-22T07:28:48.368Z,44.23
2019-03-22T07:31:19.386Z,46.20
2019-03-22T07:33:50.553Z,44.97
2019-03-22T07:36:21.690Z,44.80
2019-03-22T07:38:53.010Z,44.17
2019-03-22T07:41:24.450Z,46.03
2019-03-22T07:43:55.519Z,45.67
2019-03-22T07:46:26.615Z,49.57
2019-03-22T07:48:57.779Z,48.70
2019-03-22T07:51:29.014Z,53.60
2019-03-22T07:54:03.502Z,47.63
2019-03-22T07:56:33.808Z,47.50
2019-03-22T07:59:04.994Z,48.57
2019-03-22T08:01:36.073Z,48.50
2019-03-22T08:04:07.251Z,47.47
2019-03-22T08:06:38.448Z,45.97
2019-03-22T08:09:10.206Z,45.90
2019-03-22T08:11:41.638Z,48.97
2019-03-22T08:14:12.801Z,47.50
2019-03-22T08:16:43.870Z,46.47
2019-03-22T08:19:15.090Z,46.50
2019-03-22T08:21:47.165Z,46.70
2019-03-22T08:24:18.232Z,50.13
2019-03-22T08:26:49.638Z,48.87
2019-03-22T08:29:20.629Z,49.77
2019-03-22T08:31:52.109Z,47.73
2019-03-22T08:34:23.605Z,46.30
2019-03-22T08:36:54.733Z,45.37
2019-03-22T08:39:26.141Z,50.07
2019-03-22T08:41:57.140Z,49.03
2019-03-22T08:44:28.252Z,48.77
2019-03-22T08:46:59.332Z,50.13
2019-03-22T08:49:30.354Z,48.53
2019-03-22T08:52:01.611Z,47.97
2019-03-22T08:54:33.308Z,47.93
2019-03-22T08:57:04.515Z,49.53
2019-03-22T08:59:35.675Z,51.53
2019-03-22T09:02:08.349Z,49.87
2019-03-22T09:04:39.892Z,50.27
2019-03-22T09:07:11.271Z,52.17
2019-03-22T09:09:42.333Z,55.27
2019-03-22T09:12:13.488Z,53.03
2019-03-22T09:14:45.042Z,54.63
2019-03-22T09:17:16.224Z,53.43
2019-03-22T09:19:47.322Z,53.50
2019-03-22T09:22:18.560Z,52.77
2019-03-22T09:24:49.576Z,52.17
2019-03-22T09:27:20.567Z,48.37
2019-03-22T09:29:52.284Z,45.93
2019-03-22T09:32:23.716Z,48.73
2019-03-22T09:34:55.230Z,56.30
2019-03-22T09:37:26.941Z,49.13
2019-03-22T09:39:58.539Z,46.23
2019-03-22T09:42:29.784Z,43.63
2019-03-22T09:45:00.872Z,41.70
2019-03-22T09:47:32.017Z,39.63
2019-03-22T09:50:03.612Z,44.27
2019-03-22T09:52:34.730Z,42.77
2019-03-22T09:55:13.500Z,41.37
2019-03-22T09:57:40.151Z,41.33
2019-03-22T10:00:11.890Z,40.17
2019-03-22T10:02:43.221Z,41.10
2019-03-22T10:05:14.637Z,38.80
2019-03-22T10:07:46.077Z,38.17
2019-03-22T10:10:17.288Z,34.30
2019-03-22T10:12:48.773Z,35.27
2019-03-22T10:15:20.083Z,33.37
2019-03-22T10:17:51.573Z,32.80
2019-03-22T10:20:22.754Z,30.70
2019-03-22T10:22:54.141Z,30.03
2019-03-22T10:25:27.180Z,27.03
2019-03-22T10:27:58.786Z,25.10
2019-03-22T10:30:30.006Z,18.20
2019-03-22T10:33:01.482Z,19.03
2019-03-22T10:35:32.895Z,16.90
2019-03-22T10:38:06.307Z,16.73
2019-03-22T10:40:37.358Z,17.07
2019-03-22T10:43:08.665Z,14.87
2019-03-22T10:45:39.940Z,15.70
2019-03-22T10:48:11.240Z,14.80
2019-03-22T10:50:42.278Z,14.13
2019-03-22T10:53:13.403Z,15.07
2019-03-22T10:55:45.104Z,12.57
2019-03-22T10:58:21.186Z,12.37
2019-03-22T11:00:49.043Z,12.73
2019-03-22T11:03:20.349Z,12.57
2019-03-22T11:05:51.577Z,13.17
2019-03-22T11:08:22.769Z,13.47
2019-03-22T11:10:54.103Z,13.70
2019-03-22T11:13:26.184Z,12.83
2019-03-22T11:15:57.602Z,12.77
2019-03-22T11:18:37.067Z,14.00
2019-03-22T11:21:05.402Z,12.97
2019-03-22T11:23:35.293Z,13.03
2019-03-22T11:26:06.906Z,13.83
2019-03-22T11:28:38.140Z,12.90
2019-03-22T11:31:09.358Z,12.77
2019-03-22T11:33:40.341Z,13.13
2019-03-22T11:36:11.560Z,10.40
2019-03-22T11:38:42.941Z,11.50
2019-03-22T11:41:14.121Z,10.23
2019-03-22T11:43:45.757Z,9.47
2019-03-22T11:46:16.908Z,11.17
2019-03-22T11:48:47.982Z,10.23
2019-03-22T11:51:19.195Z,9.70
2019-03-22T11:53:50.658Z,9.80
2019-03-22T11:56:21.987Z,8.47
2019-03-22T11:58:53.477Z,6.83
2019-03-22T12:01:24.730Z,6.90
2019-03-22T12:03:55.890Z,8.20
2019-03-22T12:06:27.445Z,7.23
2019-03-22T12:08:58.546Z,7.57
2019-03-22T12:11:31.990Z,6.90
2019-03-22T12:14:03.030Z,6.80
2019-03-22T12:16:34.021Z,6.67
2019-03-22T12:19:05.253Z,7.07
2019-03-22T12:21:36.364Z,7.73
2019-03-22T12:24:07.432Z,7.70
2019-03-22T12:26:41.316Z,7.87
2019-03-22T12:29:12.753Z,6.87
2019-03-22T12:31:44.172Z,6.77
2019-03-22T12:34:15.405Z,7.27
2019-03-22T12:36:46.665Z,6.50
2019-03-22T12:39:17.657Z,6.40
2019-03-22T12:41:48.784Z,7.03
2019-03-22T12:44:39.252Z,8.07
2019-03-22T12:47:10.474Z,8.17
2019-03-22T12:49:42.738Z,7.33
2019-03-22T12:52:13.841Z,8.20
2019-03-22T12:54:44.955Z,8.00
2019-03-22T12:57:16.011Z,7.83
2019-03-22T12:59:47.130Z,7.37
2019-03-22T13:02:18.633Z,6.83
2019-03-22T13:04:50.120Z,7.30
2019-03-22T13:07:21.178Z,8.87
2019-03-22T13:09:52.582Z,8.07
2019-03-22T13:12:24.114Z,8.70
2019-03-22T13:14:56.721Z,7.47
2019-03-22T13:17:27.822Z,7.00
2019-03-22T13:19:59.006Z,6.90
2019-03-22T13:22:29.969Z,6.13
2019-03-22T13:25:01.876Z,6.37
2019-03-22T13:27:33.350Z,6.90
2019-03-22T13:30:04.836Z,6.90
2019-03-22T13:32:37.216Z,7.70
2019-03-22T13:35:09.582Z,6.90
2019-03-22T13:37:40.629Z,7.10
2019-03-22T13:40:12.032Z,5.03
2019-03-22T13:42:43.175Z,5.17
2019-03-22T13:45:14.670Z,5.47
2019-03-22T13:47:45.828Z,5.27
2019-03-22T13:50:17.002Z,5.40
2019-03-22T13:52:49.335Z,4.67
2019-03-22T13:55:20.432Z,4.47
2019-03-22T13:57:51.530Z,5.50
2019-03-22T14:00:22.849Z,7.27
2019-03-22T14:03:03.030Z,6.20
2019-03-22T14:05:26.781Z,5.27
2019-03-22T14:07:57.840Z,6.00
2019-03-22T14:10:36.320Z,4.97
2019-03-22T14:13:08.307Z,5.20
2019-03-22T14:15:39.885Z,4.80
2019-03-22T14:18:10.953Z,5.07
2019-03-22T14:20:42.157Z,4.63
2019-03-22T14:23:13.282Z,5.13
2019-03-22T14:25:44.432Z,4.20
2019-03-22T14:28:15.851Z,4.80
2019-03-22T14:30:46.979Z,4.40
2019-03-22T14:33:18.367Z,4.57
2019-03-22T14:35:49.776Z,4.30
2019-03-22T14:38:20.909Z,4.33
2019-03-22T14:40:52.002Z,4.07
2019-03-22T14:43:23.029Z,3.90
2019-03-22T14:45:54.281Z,3.80
2019-03-22T14:48:25.651Z,4.13
2019-03-22T14:50:56.681Z,4.60
2019-03-22T14:53:27.621Z,4.77
2019-03-22T14:55:58.600Z,5.07
2019-03-22T14:58:30.008Z,5.67
2019-03-22T15:01:01.147Z,4.17
2019-03-22T15:03:32.281Z,4.50
2019-03-22T15:06:03.526Z,4.80
2019-03-22T15:08:34.603Z,5.00
2019-03-22T15:11:06.062Z,5.13
2019-03-22T15:13:59.452Z,9.93
2019-03-22T15:16:47.749Z,5.20
2019-03-22T15:19:42.627Z,4.73
2019-03-22T15:22:31.181Z,4.37
2019-03-22T15:25:24.550Z,4.20
2019-03-22T15:28:17.665Z,4.20
2019-03-22T15:31:06.562Z,4.50
2019-03-22T15:33:59.373Z,4.47
2019-03-22T15:36:44.780Z,4.60
2019-03-22T15:39:46.952Z,4.00
2019-03-22T15:42:18.114Z,4.23
2019-03-22T15:44:49.450Z,4.57
2019-03-22T15:47:20.581Z,4.23
2019-03-22T15:49:51.821Z,4.27
2019-03-22T15:52:25.595Z,3.60
2019-03-22T15:54:57.020Z,3.87
2019-03-22T15:57:28.116Z,3.90
2019-03-22T15:59:59.248Z,4.20
2019-03-22T16:02:30.604Z,13.80
2019-03-22T16:05:01.730Z,5.10
2019-03-22T16:07:37.182Z,3.97
2019-03-22T16:10:09.701Z,5.00
2019-03-22T16:12:41.122Z,4.97
2019-03-22T16:15:12.665Z,4.97
2019-03-22T16:17:43.770Z,4.83
2019-03-22T16:20:15.121Z,4.60
2019-03-22T16:22:46.503Z,4.43
2019-03-22T16:25:17.589Z,4.17
2019-03-22T16:27:48.721Z,4.50
2019-03-22T16:30:19.963Z,5.27
2019-03-22T16:32:51.078Z,4.97
2019-03-22T16:35:22.190Z,4.97
2019-03-22T16:37:53.393Z,4.47
2019-03-22T16:40:24.795Z,5.10
2019-03-22T16:42:55.788Z,5.30
2019-03-22T16:45:39.279Z,5.40
2019-03-22T16:48:11.215Z,5.47
2019-03-22T16:50:43.043Z,5.30
2019-03-22T16:53:14.509Z,5.63
2019-03-22T16:55:46.560Z,6.17
2019-03-22T16:58:17.888Z,5.57
2019-03-22T17:00:50.001Z,5.10
2019-03-22T17:03:21.583Z,5.57
2019-03-22T17:05:53.050Z,5.27
2019-03-22T17:08:24.404Z,5.40
2019-03-22T17:10:55.679Z,5.33
2019-03-22T17:13:27.313Z,5.20
2019-03-22T17:15:59.286Z,5.03
2019-03-22T17:18:30.594Z,5.83
2019-03-22T17:21:02.477Z,5.53
2019-03-22T17:23:33.982Z,5.50
2019-03-22T17:26:05.355Z,5.70
2019-03-22T17:28:36.562Z,6.43
2019-03-22T17:31:07.895Z,5.77
2019-03-22T17:33:39.176Z,5.90
2019-03-22T17:36:10.887Z,6.10
2019-03-22T17:38:42.433Z,5.47
2019-03-22T17:41:14.598Z,5.83
2019-03-22T17:43:45.886Z,5.23
2019-03-22T17:46:17.219Z,5.50
2019-03-22T17:48:48.578Z,5.30
2019-03-22T17:51:20.234Z,5.17
2019-03-22T17:53:51.547Z,4.67
2019-03-22T17:56:23.463Z,4.30
2019-03-22T17:58:55.482Z,4.90
2019-03-22T18:01:26.869Z,5.07
2019-03-22T18:03:58.595Z,5.03
2019-03-22T18:06:29.942Z,7.83
2019-03-22T18:09:01.245Z,7.73
2019-03-22T18:11:32.558Z,7.60
2019-03-22T18:14:04.316Z,7.07
2019-03-22T18:16:35.556Z,7.37
2019-03-22T18:19:06.793Z,7.00
2019-03-22T18:21:38.019Z,8.83
2019-03-22T18:24:09.258Z,6.50
2019-03-22T18:26:41.460Z,7.60
2019-03-22T18:29:13.021Z,8.20
2019-03-22T18:31:44.229Z,7.13
2019-03-22T18:34:15.481Z,6.33
2019-03-22T18:36:46.785Z,7.00
2019-03-22T18:39:18.394Z,6.80
2019-03-22T18:41:50.135Z,7.13
2019-03-22T18:44:21.435Z,7.47
2019-03-22T18:46:52.996Z,7.47
2019-03-22T18:49:24.168Z,7.70
2019-03-22T18:51:56.063Z,7.67
2019-03-22T18:54:27.711Z,9.20
2019-03-22T18:56:59.778Z,8.97
2019-03-22T18:59:30.949Z,9.87
2019-03-22T19:02:02.267Z,9.13
2019-03-22T19:04:33.508Z,9.17
2019-03-22T19:07:04.739Z,9.67
2019-03-22T19:09:36.220Z,10.00
2019-03-22T19:12:07.779Z,11.43
2019-03-22T19:14:39.124Z,10.30
2019-03-22T19:17:10.386Z,10.87
2019-03-22T19:19:41.627Z,8.27
2019-03-22T19:22:13.395Z,7.93
2019-03-22T19:24:44.986Z,7.07
2019-03-22T19:27:16.255Z,7.70
2019-03-22T19:29:47.854Z,7.90
2019-03-22T19:32:19.093Z,7.53
2019-03-22T19:34:54.330Z,8.47
2019-03-22T19:37:23.576Z,7.57
2019-03-22T19:39:55.262Z,7.80
2019-03-22T19:42:26.511Z,8.33
2019-03-22T19:44:58.190Z,7.83
2019-03-22T19:47:29.799Z,8.40
2019-03-22T19:50:01.320Z,8.43
2019-03-22T19:52:32.577Z,8.33
2019-03-22T19:55:03.838Z,8.50
2019-03-22T19:57:35.113Z,10.00
2019-03-22T20:00:07.578Z,10.57
2019-03-22T20:02:38.903Z,11.33
2019-03-22T20:05:10.688Z,11.03
2019-03-22T20:07:41.828Z,12.10
2019-03-22T20:10:15.113Z,33.43
2019-03-22T20:12:46.414Z,17.03
2019-03-22T20:15:17.913Z,15.17
2019-03-22T20:17:49.206Z,11.27
2019-03-22T20:20:20.682Z,9.97
2019-03-22T20:22:51.985Z,9.40
2019-03-22T20:25:23.294Z,9.00
2019-03-22T20:27:54.452Z,11.37
2019-03-22T20:30:25.790Z,10.47
2019-03-22T20:32:57.082Z,12.40
2019-03-22T20:35:28.395Z,10.97
2019-03-22T20:37:59.676Z,10.27
2019-03-22T20:40:31.292Z,10.30
2019-03-22T20:43:02.814Z,10.90
2019-03-22T20:45:34.045Z,9.57
2019-03-22T20:48:05.332Z,10.50
2019-03-22T20:50:36.649Z,10.00
2019-03-22T20:53:07.904Z,9.80
2019-03-22T20:55:39.417Z,9.97
2019-03-22T20:58:10.737Z,9.03
2019-03-22T21:00:42.272Z,9.67
2019-03-22T21:03:13.528Z,8.90
2019-03-22T21:05:45.398Z,9.53
2019-03-22T21:08:16.838Z,9.20
2019-03-22T21:10:48.507Z,10.10
2019-03-22T21:13:19.632Z,10.37
2019-03-22T21:15:51.564Z,9.60
2019-03-22T21:18:22.845Z,9.83
2019-03-22T21:20:54.494Z,9.00
2019-03-22T21:23:35.712Z,8.77
2019-03-22T21:25:59.430Z,8.90
2019-03-22T21:28:30.663Z,9.17
2019-03-22T21:31:02.116Z,9.40
2019-03-22T21:33:33.731Z,9.37
2019-03-22T21:36:04.946Z,13.03
2019-03-22T21:38:36.236Z,9.80
2019-03-22T21:41:07.639Z,8.80
2019-03-22T21:43:38.826Z,8.70
2019-03-22T21:46:09.830Z,8.90
2019-03-22T21:48:40.821Z,9.30
2019-03-22T21:51:12.012Z,10.40
2019-03-22T21:53:43.743Z,9.63
2019-03-22T21:56:15.127Z,9.53
2019-03-22T21:58:46.407Z,11.07
2019-03-22T22:01:17.721Z,10.73
2019-03-22T22:03:48.858Z,12.53
2019-03-22T22:06:20.330Z,10.70
2019-03-22T22:08:51.551Z,11.30
2019-03-22T22:11:22.989Z,12.10
2019-03-22T22:13:54.005Z,10.60
2019-03-22T22:16:25.410Z,10.50
2019-03-22T22:18:57.095Z,11.20
2019-03-22T22:21:28.350Z,11.03
2019-03-22T22:24:00.096Z,13.20
2019-03-22T22:26:31.673Z,11.40
2019-03-22T22:29:02.958Z,11.27
2019-03-22T22:31:34.263Z,10.67
2019-03-22T22:34:05.449Z,11.70
2019-03-22T22:36:36.736Z,10.63
2019-03-22T22:39:08.641Z,11.77
2019-03-22T22:41:39.853Z,10.80
2019-03-22T22:44:11.084Z,11.37
2019-03-22T22:46:42.222Z,11.37
2019-03-22T22:49:13.487Z,10.33
2019-03-22T22:51:44.673Z,9.47
2019-03-22T22:54:16.343Z,10.00
2019-03-22T22:56:47.463Z,10.57
2019-03-22T22:59:19.044Z,10.50
2019-03-22T23:01:50.429Z,10.83
2019-03-22T23:04:21.412Z,10.00
2019-03-22T23:06:52.685Z,10.37
2019-03-22T23:09:23.635Z,10.80
2019-03-22T23:11:54.646Z,11.07
2019-03-22T23:14:26.046Z,10.93
2019-03-22T23:16:57.463Z,11.27
2019-03-22T23:19:28.626Z,10.93
2019-03-22T23:21:59.900Z,11.67
2019-03-22T23:24:31.310Z,11.00
2019-03-22T23:27:02.384Z,12.90
2019-03-22T23:29:33.511Z,12.83
2019-03-22T23:32:04.568Z,13.00
2019-03-22T23:34:35.612Z,13.00
2019-03-22T23:37:07.288Z,13.33
2019-03-22T23:39:38.432Z,13.00
2019-03-22T23:42:10.632Z,11.87
2019-03-22T23:44:48.753Z,14.37
2019-03-22T23:47:20.527Z,13.00
2019-03-22T23:49:51.548Z,14.03
2019-03-22T23:52:23.043Z,14.17
2019-03-22T23:54:54.228Z,13.17
2019-03-22T23:57:25.428Z,12.77
2019-03-22T23:59:56.785Z,13.00
